NOZ396 ENTC-ENSB
Flight info
| Callsign | NOZ396 |
|---|---|
| Flight time | 1h 22m |
| Altitude | 36000 |
| Route | LOMVI P853 BETMA DCT EDIKI DCT OTVIK DCT RARAG |
| Aircraft | B38M/M-SDE1FGHILORVWXY/HB1 |
Departure
| Time | 2026-04-27 14:38 |
|---|---|
| Airport | Tromsø Airport (ENTC) |
Arrival
| Time | 2026-04-27 16:00 |
|---|---|
| Airport | Svalbard Airport, Longyear (ENSB) |
| Time | Latitude | Longitude | Altitude | Speed | Heading |
|---|---|---|---|---|---|
| 2026-04-27 13:46 | 69.67940 | 18.90896 | 39 ft | 0 kts | 283° |
| 2026-04-27 14:30 | 69.67936 | 18.90943 | 39 ft | 4 kts | 283° |
| 2026-04-27 14:30 | 69.67930 | 18.91019 | 39 ft | 4 kts | 283° |
| 2026-04-27 14:30 | 69.67925 | 18.91088 | 35 ft | 2 kts | 283° |
| 2026-04-27 14:30 | 69.67919 | 18.91153 | 36 ft | 4 kts | 290° |
| 2026-04-27 14:31 | 69.67907 | 18.91207 | 37 ft | 4 kts | 341° |
| 2026-04-27 14:31 | 69.67886 | 18.91201 | 39 ft | 4 kts | 13° |
| 2026-04-27 14:31 | 69.67861 | 18.91184 | 40 ft | 2 kts | 13° |
| 2026-04-27 14:31 | 69.67859 | 18.91183 | 40 ft | 0 kts | 13° |
| 2026-04-27 14:33 | 69.67867 | 18.91189 | 40 ft | 3 kts | 12° |
| 2026-04-27 14:33 | 69.67903 | 18.91213 | 38 ft | 8 kts | 13° |
| 2026-04-27 14:34 | 69.67974 | 18.91262 | 38 ft | 14 kts | 13° |
| 2026-04-27 14:34 | 69.68098 | 18.91348 | 35 ft | 22 kts | 13° |
| 2026-04-27 14:34 | 69.68270 | 18.91457 | 30 ft | 27 kts | 12° |
| 2026-04-27 14:34 | 69.68463 | 18.91510 | 28 ft | 30 kts | 9° |
| 2026-04-27 14:35 | 69.68676 | 18.91652 | 29 ft | 33 kts | 14° |
| 2026-04-27 14:35 | 69.68778 | 18.91811 | 22 ft | 12 kts | 86° |
| 2026-04-27 14:35 | 69.68759 | 18.92069 | 24 ft | 14 kts | 100° |
| 2026-04-27 14:35 | 69.68819 | 18.92206 | 25 ft | 13 kts | 12° |
| 2026-04-27 14:36 | 69.68913 | 18.92269 | 26 ft | 15 kts | 13° |
| 2026-04-27 14:36 | 69.69027 | 18.92345 | 25 ft | 20 kts | 13° |
| 2026-04-27 14:36 | 69.69188 | 18.92451 | 27 ft | 27 kts | 13° |
| 2026-04-27 14:36 | 69.69322 | 18.92602 | 26 ft | 15 kts | 39° |
| 2026-04-27 14:37 | 69.69365 | 18.92550 | 27 ft | 6 kts | 218° |
| 2026-04-27 14:37 | 69.69319 | 18.92537 | 28 ft | 8 kts | 192° |
| 2026-04-27 14:37 | 69.69242 | 18.92489 | 25 ft | 21 kts | 192° |
| 2026-04-27 14:37 | 69.68832 | 18.92219 | 25 ft | 102 kts | 193° |
| 2026-04-27 14:38 | 69.67906 | 18.91591 | 78 ft | 167 kts | 193° |
| 2026-04-27 14:38 | 69.66667 | 18.90721 | 698 ft | 190 kts | 193° |
| 2026-04-27 14:38 | 69.65406 | 18.89874 | 1868 ft | 184 kts | 192° |
| 2026-04-27 14:38 | 69.64070 | 18.89011 | 2330 ft | 216 kts | 192° |
| 2026-04-27 14:39 | 69.62594 | 18.88100 | 3285 ft | 212 kts | 192° |
| 2026-04-27 14:39 | 69.61162 | 18.87210 | 4284 ft | 215 kts | 192° |
| 2026-04-27 14:39 | 69.59712 | 18.86004 | 5167 ft | 218 kts | 210° |
| 2026-04-27 14:39 | 69.58642 | 18.83011 | 6063 ft | 219 kts | 242° |
| 2026-04-27 14:40 | 69.58250 | 18.78754 | 6803 ft | 229 kts | 271° |
| 2026-04-27 14:40 | 69.58620 | 18.74192 | 7372 ft | 246 kts | 298° |
| 2026-04-27 14:40 | 69.59781 | 18.70376 | 7922 ft | 265 kts | 324° |
| 2026-04-27 14:40 | 69.61465 | 18.68014 | 8489 ft | 282 kts | 345° |
| 2026-04-27 14:41 | 69.63419 | 18.67679 | 9390 ft | 283 kts | 9° |
| 2026-04-27 14:41 | 69.65290 | 18.69557 | 10229 ft | 290 kts | 27° |
| 2026-04-27 14:41 | 69.67141 | 18.72278 | 10761 ft | 308 kts | 27° |
| 2026-04-27 14:41 | 69.69093 | 18.75253 | 11201 ft | 326 kts | 28° |
| 2026-04-27 14:42 | 69.71122 | 18.78491 | 11754 ft | 339 kts | 30° |
| 2026-04-27 14:42 | 69.73159 | 18.81875 | 12516 ft | 343 kts | 30° |
| 2026-04-27 14:42 | 69.75240 | 18.85359 | 13315 ft | 347 kts | 30° |
| 2026-04-27 14:42 | 69.77339 | 18.88892 | 14066 ft | 351 kts | 30° |
| 2026-04-27 14:43 | 69.79463 | 18.92476 | 14790 ft | 355 kts | 30° |
| 2026-04-27 14:43 | 69.81637 | 18.95949 | 15482 ft | 358 kts | 22° |
| 2026-04-27 14:43 | 69.84063 | 18.97587 | 16161 ft | 361 kts | 4° |
| 2026-04-27 14:43 | 69.86572 | 18.97958 | 16771 ft | 366 kts | 2° |
| 2026-04-27 14:44 | 69.89131 | 18.98286 | 17420 ft | 369 kts | 2° |
| 2026-04-27 14:44 | 69.91718 | 18.98576 | 18028 ft | 371 kts | 2° |
| 2026-04-27 14:44 | 69.94320 | 18.98848 | 18599 ft | 375 kts | 2° |
| 2026-04-27 14:44 | 69.96942 | 18.99113 | 19140 ft | 379 kts | 2° |
| 2026-04-27 14:45 | 69.99591 | 18.99375 | 19716 ft | 382 kts | 2° |
| 2026-04-27 14:45 | 70.02241 | 18.99635 | 20260 ft | 386 kts | 2° |
| 2026-04-27 14:45 | 70.04944 | 18.99900 | 20791 ft | 389 kts | 2° |
| 2026-04-27 14:45 | 70.07657 | 19.00156 | 21333 ft | 391 kts | 1° |
| 2026-04-27 14:46 | 70.10393 | 19.00197 | 21820 ft | 395 kts | 0° |
| 2026-04-27 14:46 | 70.13150 | 19.00229 | 22313 ft | 398 kts | 0° |
| 2026-04-27 14:46 | 70.15924 | 19.00268 | 22806 ft | 400 kts | 0° |
| 2026-04-27 14:46 | 70.18692 | 19.00311 | 23263 ft | 403 kts | 0° |
| 2026-04-27 14:47 | 70.21512 | 19.00357 | 23733 ft | 406 kts | 0° |
| 2026-04-27 14:47 | 70.24356 | 19.00404 | 24174 ft | 409 kts | 0° |
| 2026-04-27 14:47 | 70.27215 | 19.00452 | 24604 ft | 412 kts | 0° |
| 2026-04-27 14:47 | 70.30087 | 19.00501 | 25022 ft | 414 kts | 0° |
| 2026-04-27 14:48 | 70.32979 | 19.00550 | 25435 ft | 417 kts | 0° |
| 2026-04-27 14:48 | 70.38798 | 19.00650 | 26215 ft | 422 kts | 0° |
| 2026-04-27 14:48 | 70.41747 | 19.00701 | 26604 ft | 424 kts | 0° |
| 2026-04-27 14:49 | 70.44714 | 19.00752 | 26965 ft | 427 kts | 0° |
| 2026-04-27 14:49 | 70.47695 | 19.00804 | 27319 ft | 429 kts | 0° |
| 2026-04-27 14:49 | 70.50694 | 19.00856 | 27672 ft | 432 kts | 0° |
| 2026-04-27 14:49 | 70.53708 | 19.00909 | 28017 ft | 434 kts | 0° |
| 2026-04-27 14:50 | 70.56711 | 19.00962 | 28348 ft | 436 kts | 0° |
| 2026-04-27 14:50 | 70.59758 | 19.01016 | 28672 ft | 438 kts | 0° |
| 2026-04-27 14:50 | 70.62825 | 19.00940 | 28992 ft | 440 kts | 358° |
| 2026-04-27 14:50 | 70.65858 | 19.00672 | 29294 ft | 443 kts | 358° |
| 2026-04-27 14:51 | 70.68959 | 19.00426 | 29602 ft | 445 kts | 358° |
| 2026-04-27 14:51 | 70.72074 | 19.00189 | 29900 ft | 447 kts | 358° |
| 2026-04-27 14:51 | 70.75191 | 18.99954 | 30195 ft | 449 kts | 358° |
| 2026-04-27 14:51 | 70.77267 | 18.99798 | 30395 ft | 450 kts | 358° |
| 2026-04-27 14:52 | 70.81447 | 18.99482 | 30761 ft | 453 kts | 358° |
| 2026-04-27 14:52 | 70.84610 | 18.99242 | 31036 ft | 455 kts | 358° |
| 2026-04-27 14:52 | 70.87786 | 18.99001 | 31299 ft | 457 kts | 358° |
| 2026-04-27 14:52 | 70.90974 | 18.98758 | 31566 ft | 459 kts | 358° |
| 2026-04-27 14:53 | 70.94174 | 18.98513 | 31831 ft | 461 kts | 358° |
| 2026-04-27 14:53 | 70.97384 | 18.98267 | 32088 ft | 462 kts | 358° |
| 2026-04-27 14:53 | 71.00605 | 18.98019 | 32395 ft | 463 kts | 358° |
| 2026-04-27 14:53 | 71.03779 | 18.97775 | 32742 ft | 462 kts | 358° |
| 2026-04-27 14:54 | 71.07004 | 18.97524 | 33084 ft | 461 kts | 358° |
| 2026-04-27 14:54 | 71.10208 | 18.97276 | 33419 ft | 460 kts | 358° |
| 2026-04-27 14:54 | 71.13416 | 18.97025 | 33747 ft | 460 kts | 358° |
| 2026-04-27 14:54 | 71.16592 | 18.96777 | 34070 ft | 459 kts | 358° |
| 2026-04-27 14:55 | 71.19801 | 18.96525 | 34384 ft | 459 kts | 358° |
| 2026-04-27 14:55 | 71.22962 | 18.96276 | 34688 ft | 458 kts | 358° |
| 2026-04-27 14:55 | 71.26150 | 18.96024 | 34982 ft | 457 kts | 358° |
| 2026-04-27 14:55 | 71.29337 | 18.95772 | 35271 ft | 457 kts | 358° |
| 2026-04-27 14:56 | 71.32520 | 18.95519 | 35546 ft | 456 kts | 358° |
| 2026-04-27 14:56 | 71.35690 | 18.95266 | 35805 ft | 456 kts | 358° |
| 2026-04-27 14:56 | 71.38870 | 18.95011 | 35999 ft | 456 kts | 358° |
| 2026-04-27 14:56 | 71.42006 | 18.94760 | 36010 ft | 456 kts | 358° |
| 2026-04-27 14:57 | 71.48333 | 18.94249 | 36006 ft | 454 kts | 358° |
| 2026-04-27 14:57 | 71.54657 | 18.93735 | 36000 ft | 454 kts | 358° |
| 2026-04-27 14:58 | 71.60949 | 18.93221 | 35998 ft | 454 kts | 358° |
| 2026-04-27 14:58 | 71.67243 | 18.92703 | 36000 ft | 454 kts | 358° |
| 2026-04-27 14:59 | 71.73600 | 18.92176 | 35999 ft | 454 kts | 358° |
| 2026-04-27 14:59 | 71.79880 | 18.91652 | 36001 ft | 454 kts | 358° |
| 2026-04-27 15:00 | 71.86214 | 18.91120 | 35998 ft | 454 kts | 358° |
| 2026-04-27 15:00 | 71.92541 | 18.90585 | 36000 ft | 454 kts | 358° |
| 2026-04-27 15:01 | 71.98820 | 18.90051 | 36003 ft | 454 kts | 358° |
| 2026-04-27 15:01 | 72.05144 | 18.89509 | 36000 ft | 454 kts | 358° |
| 2026-04-27 15:02 | 72.11466 | 18.88964 | 36001 ft | 454 kts | 358° |
| 2026-04-27 15:02 | 72.17792 | 18.88414 | 36003 ft | 454 kts | 358° |
| 2026-04-27 15:03 | 72.24078 | 18.87864 | 36002 ft | 454 kts | 358° |
| 2026-04-27 15:03 | 72.30426 | 18.87305 | 35999 ft | 454 kts | 358° |
| 2026-04-27 15:04 | 72.36708 | 18.86748 | 36001 ft | 454 kts | 358° |
| 2026-04-27 15:04 | 72.43027 | 18.86184 | 35999 ft | 454 kts | 358° |
| 2026-04-27 15:05 | 72.49352 | 18.85615 | 35999 ft | 454 kts | 358° |
| 2026-04-27 15:05 | 72.55677 | 18.85042 | 36000 ft | 454 kts | 358° |
| 2026-04-27 15:06 | 72.61965 | 18.84469 | 35998 ft | 454 kts | 358° |
| 2026-04-27 15:06 | 72.68292 | 18.83888 | 36003 ft | 454 kts | 358° |
| 2026-04-27 15:07 | 72.74584 | 18.83306 | 36001 ft | 454 kts | 358° |
| 2026-04-27 15:07 | 72.80922 | 18.82715 | 36004 ft | 454 kts | 358° |
| 2026-04-27 15:08 | 72.87211 | 18.82125 | 36002 ft | 454 kts | 358° |
| 2026-04-27 15:08 | 72.93532 | 18.81528 | 35997 ft | 454 kts | 358° |
| 2026-04-27 15:09 | 72.98825 | 18.81024 | 35997 ft | 454 kts | 358° |
| 2026-04-27 15:09 | 73.06181 | 18.80320 | 36001 ft | 454 kts | 358° |
| 2026-04-27 15:10 | 73.11441 | 18.79812 | 35998 ft | 454 kts | 358° |
| 2026-04-27 15:10 | 73.17730 | 18.79201 | 36002 ft | 454 kts | 358° |
| 2026-04-27 15:11 | 73.24048 | 18.78583 | 35997 ft | 454 kts | 358° |
| 2026-04-27 15:11 | 73.30380 | 18.77959 | 35998 ft | 454 kts | 358° |
| 2026-04-27 15:12 | 73.36706 | 18.77331 | 36003 ft | 454 kts | 358° |
| 2026-04-27 15:12 | 73.42990 | 18.76702 | 36001 ft | 454 kts | 358° |
| 2026-04-27 15:13 | 73.49316 | 18.76064 | 36004 ft | 454 kts | 358° |
| 2026-04-27 15:13 | 73.55638 | 18.75423 | 35999 ft | 454 kts | 358° |
| 2026-04-27 15:14 | 73.61932 | 18.74779 | 35998 ft | 454 kts | 358° |
| 2026-04-27 15:14 | 73.68264 | 18.74126 | 35997 ft | 454 kts | 358° |
| 2026-04-27 15:15 | 73.74595 | 18.73469 | 36003 ft | 454 kts | 358° |
| 2026-04-27 15:15 | 73.80881 | 18.72811 | 36004 ft | 454 kts | 358° |
| 2026-04-27 15:16 | 73.87210 | 18.72144 | 35999 ft | 454 kts | 358° |
| 2026-04-27 15:16 | 73.93493 | 18.71476 | 36002 ft | 454 kts | 358° |
| 2026-04-27 15:17 | 73.99824 | 18.70799 | 35999 ft | 454 kts | 358° |
| 2026-04-27 15:17 | 74.06130 | 18.70118 | 36000 ft | 454 kts | 358° |
| 2026-04-27 15:18 | 74.12463 | 18.69430 | 35998 ft | 454 kts | 358° |
| 2026-04-27 15:18 | 74.18775 | 18.68738 | 35998 ft | 454 kts | 358° |
| 2026-04-27 15:19 | 74.25080 | 18.68042 | 35999 ft | 454 kts | 358° |
| 2026-04-27 15:19 | 74.31408 | 18.67338 | 35998 ft | 454 kts | 358° |
| 2026-04-27 15:20 | 74.37697 | 18.66632 | 36001 ft | 454 kts | 358° |
| 2026-04-27 15:20 | 74.44021 | 18.65917 | 35998 ft | 454 kts | 358° |
| 2026-04-27 15:21 | 74.50343 | 18.65197 | 35998 ft | 454 kts | 358° |
| 2026-04-27 15:21 | 74.56659 | 18.64472 | 36000 ft | 454 kts | 358° |
| 2026-04-27 15:22 | 74.62982 | 18.63740 | 36004 ft | 454 kts | 358° |
| 2026-04-27 15:22 | 74.69260 | 18.63007 | 35999 ft | 454 kts | 358° |
| 2026-04-27 15:23 | 74.75592 | 18.62262 | 36001 ft | 454 kts | 358° |
| 2026-04-27 15:23 | 74.81917 | 18.61511 | 36003 ft | 454 kts | 358° |
| 2026-04-27 15:24 | 74.88237 | 18.60756 | 35999 ft | 454 kts | 358° |
| 2026-04-27 15:24 | 74.94563 | 18.59993 | 35997 ft | 454 kts | 358° |
| 2026-04-27 15:25 | 75.00855 | 18.59228 | 35999 ft | 454 kts | 358° |
| 2026-04-27 15:25 | 75.07180 | 18.58453 | 36003 ft | 454 kts | 358° |
| 2026-04-27 15:26 | 75.13500 | 18.57672 | 35999 ft | 454 kts | 358° |
| 2026-04-27 15:26 | 75.19819 | 18.56885 | 35997 ft | 454 kts | 358° |
| 2026-04-27 15:27 | 75.26106 | 18.56095 | 35997 ft | 454 kts | 358° |
| 2026-04-27 15:27 | 75.32425 | 18.55294 | 35997 ft | 454 kts | 358° |
| 2026-04-27 15:28 | 75.38745 | 18.54487 | 35998 ft | 454 kts | 358° |
| 2026-04-27 15:28 | 75.45063 | 18.53672 | 36001 ft | 454 kts | 358° |
| 2026-04-27 15:29 | 75.51387 | 18.52850 | 35999 ft | 454 kts | 358° |
| 2026-04-27 15:29 | 75.57701 | 18.52022 | 35997 ft | 454 kts | 358° |
| 2026-04-27 15:30 | 75.64006 | 18.51189 | 36000 ft | 454 kts | 358° |
| 2026-04-27 15:30 | 75.70322 | 18.50347 | 36001 ft | 454 kts | 358° |
| 2026-04-27 15:31 | 75.76654 | 18.49495 | 35997 ft | 454 kts | 358° |
| 2026-04-27 15:31 | 75.82974 | 18.48638 | 36002 ft | 454 kts | 358° |
| 2026-04-27 15:32 | 75.89291 | 18.47773 | 36000 ft | 454 kts | 358° |
| 2026-04-27 15:32 | 75.95571 | 18.46907 | 36000 ft | 454 kts | 358° |
| 2026-04-27 15:33 | 76.01890 | 18.46029 | 35962 ft | 451 kts | 358° |
| 2026-04-27 15:33 | 76.05017 | 18.45591 | 35719 ft | 448 kts | 358° |
| 2026-04-27 15:33 | 76.08110 | 18.45156 | 35302 ft | 444 kts | 358° |
| 2026-04-27 15:34 | 76.11225 | 18.44716 | 34367 ft | 451 kts | 358° |
| 2026-04-27 15:34 | 76.14358 | 18.44272 | 33713 ft | 450 kts | 358° |
| 2026-04-27 15:34 | 76.17495 | 18.43825 | 33196 ft | 451 kts | 358° |
| 2026-04-27 15:34 | 76.20631 | 18.43376 | 32681 ft | 452 kts | 358° |
| 2026-04-27 15:35 | 76.23749 | 18.42928 | 32188 ft | 453 kts | 358° |
| 2026-04-27 15:35 | 76.26913 | 18.42471 | 31689 ft | 454 kts | 358° |
| 2026-04-27 15:35 | 76.30083 | 18.42011 | 31192 ft | 456 kts | 358° |
| 2026-04-27 15:35 | 76.33262 | 18.41549 | 30695 ft | 457 kts | 358° |
| 2026-04-27 15:36 | 76.36445 | 18.41082 | 30197 ft | 458 kts | 358° |
| 2026-04-27 15:36 | 76.39629 | 18.40615 | 29702 ft | 459 kts | 358° |
| 2026-04-27 15:36 | 76.42828 | 18.40142 | 29188 ft | 460 kts | 358° |
| 2026-04-27 15:36 | 76.45983 | 18.39168 | 28702 ft | 461 kts | 354° |
| 2026-04-27 15:37 | 76.49218 | 18.37715 | 28182 ft | 462 kts | 354° |
| 2026-04-27 15:37 | 76.52384 | 18.36370 | 27684 ft | 463 kts | 354° |
| 2026-04-27 15:37 | 76.55594 | 18.35041 | 27181 ft | 464 kts | 354° |
| 2026-04-27 15:37 | 76.58821 | 18.33712 | 26672 ft | 465 kts | 354° |
| 2026-04-27 15:38 | 76.62050 | 18.32379 | 26177 ft | 466 kts | 354° |
| 2026-04-27 15:38 | 76.65292 | 18.31037 | 25669 ft | 467 kts | 354° |
| 2026-04-27 15:38 | 76.68539 | 18.29685 | 25168 ft | 469 kts | 354° |
| 2026-04-27 15:38 | 76.71793 | 18.28324 | 24661 ft | 470 kts | 354° |
| 2026-04-27 15:39 | 76.75002 | 18.26975 | 24164 ft | 467 kts | 354° |
| 2026-04-27 15:39 | 76.78240 | 18.25608 | 23660 ft | 469 kts | 354° |
| 2026-04-27 15:39 | 76.81480 | 18.24233 | 23101 ft | 462 kts | 354° |
| 2026-04-27 15:39 | 76.84666 | 18.22875 | 22556 ft | 457 kts | 354° |
| 2026-04-27 15:40 | 76.87818 | 18.21524 | 22005 ft | 453 kts | 354° |
| 2026-04-27 15:40 | 76.90942 | 18.20180 | 21469 ft | 449 kts | 354° |
| 2026-04-27 15:40 | 76.94043 | 18.18838 | 20959 ft | 446 kts | 354° |
| 2026-04-27 15:40 | 76.97129 | 18.17498 | 20460 ft | 443 kts | 354° |
| 2026-04-27 15:41 | 77.00185 | 18.16164 | 19989 ft | 440 kts | 354° |
| 2026-04-27 15:41 | 77.03225 | 18.14831 | 19527 ft | 437 kts | 354° |
| 2026-04-27 15:41 | 77.06243 | 18.13501 | 19046 ft | 434 kts | 354° |
| 2026-04-27 15:41 | 77.09197 | 18.12194 | 18598 ft | 431 kts | 354° |
| 2026-04-27 15:42 | 77.12176 | 18.10870 | 18152 ft | 428 kts | 354° |
| 2026-04-27 15:42 | 77.15108 | 18.09560 | 17722 ft | 419 kts | 354° |
| 2026-04-27 15:42 | 77.17996 | 18.08264 | 17248 ft | 413 kts | 354° |
| 2026-04-27 15:42 | 77.20833 | 18.06988 | 16790 ft | 407 kts | 354° |
| 2026-04-27 15:43 | 77.23637 | 18.05721 | 16370 ft | 400 kts | 354° |
| 2026-04-27 15:43 | 77.26377 | 18.04301 | 15960 ft | 394 kts | 348° |
| 2026-04-27 15:43 | 77.28945 | 18.00319 | 15611 ft | 386 kts | 338° |
| 2026-04-27 15:43 | 77.31428 | 17.95911 | 15321 ft | 377 kts | 339° |
| 2026-04-27 15:44 | 77.33803 | 17.91701 | 14862 ft | 367 kts | 339° |
| 2026-04-27 15:44 | 77.36139 | 17.87536 | 14331 ft | 356 kts | 339° |
| 2026-04-27 15:44 | 77.38422 | 17.83450 | 13865 ft | 349 kts | 339° |
| 2026-04-27 15:44 | 77.40651 | 17.79443 | 13450 ft | 337 kts | 338° |
| 2026-04-27 15:45 | 77.42808 | 17.75553 | 13009 ft | 328 kts | 338° |
| 2026-04-27 15:45 | 77.44879 | 17.71803 | 12628 ft | 320 kts | 338° |
| 2026-04-27 15:45 | 77.46933 | 17.68071 | 12426 ft | 313 kts | 338° |
| 2026-04-27 15:45 | 77.48947 | 17.64400 | 12123 ft | 310 kts | 338° |
| 2026-04-27 15:46 | 77.50950 | 17.60736 | 11781 ft | 308 kts | 338° |
| 2026-04-27 15:46 | 77.52941 | 17.57079 | 11421 ft | 307 kts | 338° |
| 2026-04-27 15:46 | 77.54919 | 17.53437 | 11077 ft | 305 kts | 338° |
| 2026-04-27 15:46 | 77.56867 | 17.49837 | 10740 ft | 303 kts | 338° |
| 2026-04-27 15:47 | 77.58851 | 17.46160 | 10378 ft | 302 kts | 338° |
| 2026-04-27 15:47 | 77.60772 | 17.42586 | 10046 ft | 301 kts | 338° |
| 2026-04-27 15:47 | 77.62699 | 17.38989 | 9848 ft | 294 kts | 338° |
| 2026-04-27 15:47 | 77.64553 | 17.35516 | 9624 ft | 282 kts | 338° |
| 2026-04-27 15:48 | 77.66357 | 17.32127 | 9348 ft | 277 kts | 338° |
| 2026-04-27 15:48 | 77.68136 | 17.28774 | 9032 ft | 276 kts | 338° |
| 2026-04-27 15:48 | 77.69913 | 17.25416 | 8712 ft | 274 kts | 338° |
| 2026-04-27 15:49 | 77.73441 | 17.18718 | 8081 ft | 272 kts | 338° |
| 2026-04-27 15:49 | 77.75183 | 17.15395 | 7769 ft | 270 kts | 338° |
| 2026-04-27 15:49 | 77.76921 | 17.12070 | 7477 ft | 268 kts | 338° |
| 2026-04-27 15:49 | 77.78624 | 17.08800 | 7173 ft | 267 kts | 338° |
| 2026-04-27 15:50 | 77.80338 | 17.05502 | 6882 ft | 265 kts | 338° |
| 2026-04-27 15:50 | 77.82043 | 17.02210 | 6674 ft | 265 kts | 338° |
| 2026-04-27 15:50 | 77.83753 | 16.98899 | 6462 ft | 265 kts | 338° |
| 2026-04-27 15:50 | 77.85466 | 16.95573 | 6273 ft | 266 kts | 338° |
| 2026-04-27 15:51 | 77.87174 | 16.92246 | 6076 ft | 265 kts | 338° |
| 2026-04-27 15:51 | 77.88874 | 16.88924 | 5885 ft | 263 kts | 338° |
| 2026-04-27 15:51 | 77.90548 | 16.85642 | 5673 ft | 262 kts | 338° |
| 2026-04-27 15:51 | 77.92235 | 16.82326 | 5479 ft | 261 kts | 338° |
| 2026-04-27 15:52 | 77.93915 | 16.79018 | 5277 ft | 261 kts | 338° |
| 2026-04-27 15:52 | 77.95594 | 16.75702 | 5074 ft | 260 kts | 338° |
| 2026-04-27 15:52 | 77.97263 | 16.72398 | 4874 ft | 260 kts | 338° |
| 2026-04-27 15:52 | 77.98940 | 16.69070 | 4699 ft | 259 kts | 337° |
| 2026-04-27 15:53 | 78.00545 | 16.65196 | 4678 ft | 259 kts | 321° |
| 2026-04-27 15:53 | 78.01649 | 16.58480 | 4700 ft | 259 kts | 295° |
| 2026-04-27 15:53 | 78.02376 | 16.50513 | 4709 ft | 260 kts | 293° |
| 2026-04-27 15:53 | 78.03078 | 16.42625 | 4702 ft | 259 kts | 293° |
| 2026-04-27 15:54 | 78.03775 | 16.34630 | 4701 ft | 258 kts | 292° |
| 2026-04-27 15:54 | 78.04461 | 16.26640 | 4700 ft | 258 kts | 292° |
| 2026-04-27 15:54 | 78.05143 | 16.18613 | 4684 ft | 257 kts | 292° |
| 2026-04-27 15:54 | 78.05860 | 16.10799 | 4518 ft | 251 kts | 303° |
| 2026-04-27 15:55 | 78.07094 | 16.05089 | 4264 ft | 247 kts | 332° |
| 2026-04-27 15:55 | 78.08158 | 16.03218 | 4055 ft | 246 kts | 350° |
| 2026-04-27 15:55 | 78.10447 | 16.02224 | 3485 ft | 248 kts | 356° |
| 2026-04-27 15:55 | 78.12170 | 16.01669 | 3041 ft | 246 kts | 356° |
| 2026-04-27 15:56 | 78.13823 | 16.01169 | 2944 ft | 229 kts | 356° |
| 2026-04-27 15:56 | 78.15359 | 16.00656 | 2950 ft | 212 kts | 353° |
| 2026-04-27 15:56 | 78.16695 | 15.99261 | 2940 ft | 182 kts | 341° |
| 2026-04-27 15:56 | 78.17802 | 15.96673 | 2874 ft | 177 kts | 326° |
| 2026-04-27 15:57 | 78.18789 | 15.93070 | 2882 ft | 177 kts | 322° |
| 2026-04-27 15:57 | 78.19770 | 15.89408 | 2904 ft | 178 kts | 322° |
| 2026-04-27 15:57 | 78.20714 | 15.85654 | 2650 ft | 169 kts | 317° |
| 2026-04-27 15:57 | 78.21501 | 15.81616 | 2296 ft | 160 kts | 309° |
| 2026-04-27 15:58 | 78.22169 | 15.77324 | 1830 ft | 158 kts | 305° |
| 2026-04-27 15:58 | 78.22778 | 15.72739 | 1287 ft | 162 kts | 300° |
| 2026-04-27 15:58 | 78.23273 | 15.67939 | 892 ft | 156 kts | 294° |
| 2026-04-27 15:58 | 78.23640 | 15.63192 | 660 ft | 142 kts | 286° |
| 2026-04-27 15:59 | 78.23932 | 15.58600 | 413 ft | 140 kts | 285° |
| 2026-04-27 15:59 | 78.24101 | 15.55555 | 325 ft | 141 kts | 284° |
| 2026-04-27 15:59 | 78.24369 | 15.50870 | 142 ft | 146 kts | 284° |
| 2026-04-27 15:59 | 78.24693 | 15.44973 | 99 ft | 91 kts | 285° |
| 2026-04-27 16:00 | 78.24780 | 15.43558 | 95 ft | 60 kts | 286° |
| 2026-04-27 16:00 | 78.24876 | 15.41959 | 89 ft | 47 kts | 286° |
| 2026-04-27 16:00 | 78.24924 | 15.41285 | 88 ft | 14 kts | 282° |
| 2026-04-27 16:00 | 78.24909 | 15.41179 | 87 ft | 1 kts | 147° |
| 2026-04-27 16:01 | 78.24894 | 15.41417 | 91 ft | 16 kts | 104° |
| 2026-04-27 16:01 | 78.24854 | 15.42168 | 91 ft | 29 kts | 104° |
| 2026-04-27 16:01 | 78.24792 | 15.43283 | 94 ft | 38 kts | 106° |
| 2026-04-27 16:01 | 78.24717 | 15.44675 | 98 ft | 47 kts | 105° |
| 2026-04-27 16:02 | 78.24623 | 15.46323 | 97 ft | 49 kts | 104° |
| 2026-04-27 16:02 | 78.24560 | 15.47450 | 93 ft | 29 kts | 107° |
| 2026-04-27 16:02 | 78.24558 | 15.48037 | 92 ft | 9 kts | 48° |
| 2026-04-27 16:02 | 78.24587 | 15.48328 | 90 ft | 11 kts | 79° |
| 2026-04-27 16:03 | 78.24617 | 15.48702 | 94 ft | 13 kts | 32° |
| 2026-04-27 16:03 | 78.24652 | 15.48849 | 92 ft | 7 kts | 79° |
| 2026-04-27 16:03 | 78.24648 | 15.49038 | 94 ft | 3 kts | 104° |
| 2026-04-27 16:03 | 78.24648 | 15.49042 | 94 ft | 0 kts | 103° |